Time;durP1;ratioP1;P1;durP2;ratioP2;P2;SDS_P1;SDS_P2;PMS_P1;PMS_P2;Temp;Humidity;BMP_temperature;BMP_pressure;BME280_temperature;BME280_humidity;BME280_pressure;Samples;Min_cycle;Max_cycle;Signal;HPM_P1;HPM_P2
2021/06/30 00:01:27;;;;;;;0.20;0.20;;;14.50;99.90;;;;;;5058413;28;20020;-83
2021/06/30 00:03:52;;;;;;;0.10;0.10;;;14.50;99.90;;;;;;5063502;28;20715;-83
2021/06/30 00:06:19;;;;;;;0.63;0.63;;;14.50;99.90;;;;;;5067926;28;20028;-83
2021/06/30 00:08:46;;;;;;;0.28;0.28;;;14.50;99.90;;;;;;5056856;28;20040;-82
2021/06/30 00:11:12;;;;;;;0.20;0.20;;;14.50;99.90;;;;;;5057243;28;20024;-83
2021/06/30 00:13:38;;;;;;;0.30;0.30;;;14.50;99.90;;;;;;5061218;28;20047;-83
2021/06/30 00:16:05;;;;;;;0.30;0.30;;;14.50;99.90;;;;;;5059442;28;20083;-83
2021/06/30 00:18:30;;;;;;;3.30;1.10;;;14.40;99.90;;;;;;5055207;28;20028;-83
2021/06/30 00:20:57;;;;;;;0.67;0.50;;;14.50;99.90;;;;;;5048708;28;20524;-83
2021/06/30 00:23:23;;;;;;;0.10;0.10;;;14.50;99.90;;;;;;5052745;28;20079;-83
2021/06/30 00:25:49;;;;;;;0.22;0.22;;;14.40;99.90;;;;;;5053105;28;20071;-83
2021/06/30 00:28:15;;;;;;;0.60;0.60;;;14.40;99.90;;;;;;5057663;28;20040;-83
2021/06/30 00:30:41;;;;;;;0.10;0.10;;;14.40;99.90;;;;;;5049626;28;20548;-83
2021/06/30 00:33:07;;;;;;;0.00;0.00;;;14.40;99.90;;;;;;5057714;28;20024;-83
2021/06/30 00:35:33;;;;;;;0.10;0.10;;;14.30;99.90;;;;;;5060527;28;20858;-83
2021/06/30 00:37:58;;;;;;;0.10;0.10;;;14.30;99.90;;;;;;5064970;28;20108;-83
2021/06/30 00:40:24;;;;;;;0.37;0.37;;;14.30;99.90;;;;;;5056849;28;20120;-83
2021/06/30 00:42:51;;;;;;;0.20;0.20;;;14.30;99.90;;;;;;5053456;28;20103;-83
2021/06/30 00:45:18;;;;;;;0.10;0.10;;;14.30;99.90;;;;;;5064867;28;20086;-83
2021/06/30 00:47:44;;;;;;;0.10;0.10;;;14.30;99.90;;;;;;5056720;28;20047;-82
2021/06/30 00:50:16;;;;;;;1.73;0.23;;;14.30;99.90;;;;;;5062878;28;20035;-82
2021/06/30 00:52:42;;;;;;;0.10;0.10;;;14.20;99.90;;;;;;5056758;28;20301;-82
2021/06/30 00:55:09;;;;;;;1.02;0.40;;;14.30;99.90;;;;;;5054810;28;20028;-82
2021/06/30 00:57:36;;;;;;;0.10;0.10;;;14.30;99.90;;;;;;5050635;28;20132;-82
2021/06/30 01:00:05;;;;;;;0.57;0.57;;;14.20;99.90;;;;;;5049758;28;20033;-82
2021/06/30 01:02:31;;;;;;;0.20;0.20;;;14.20;99.90;;;;;;5059485;28;20033;-82
2021/06/30 01:04:56;;;;;;;0.33;0.33;;;14.20;99.90;;;;;;5048175;28;20036;-82
2021/06/30 01:07:22;;;;;;;0.20;0.20;;;14.20;99.90;;;;;;5054009;28;20138;-82
2021/06/30 01:09:48;;;;;;;0.07;0.07;;;14.20;99.90;;;;;;5055245;28;20814;-82
2021/06/30 01:12:14;;;;;;;0.13;0.13;;;14.20;99.90;;;;;;5051022;28;20371;-82
2021/06/30 01:14:40;;;;;;;0.13;0.13;;;14.10;99.90;;;;;;5056558;28;20052;-82
2021/06/30 01:17:07;;;;;;;0.20;0.20;;;14.00;99.90;;;;;;5060290;28;20029;-82
2021/06/30 01:19:37;;;;;;;0.10;0.10;;;13.90;99.90;;;;;;5050262;28;20073;-82
2021/06/30 01:22:05;;;;;;;0.22;0.22;;;13.90;99.90;;;;;;5059126;28;20610;-82
2021/06/30 01:24:32;;;;;;;0.15;0.15;;;13.90;99.90;;;;;;5064226;28;20088;-82
2021/06/30 01:26:57;;;;;;;0.13;0.13;;;13.90;99.90;;;;;;5051047;28;20029;-82
2021/06/30 01:29:23;;;;;;;0.10;0.10;;;13.90;99.90;;;;;;5055186;28;20029;-82
2021/06/30 01:31:51;;;;;;;0.20;0.20;;;13.90;99.90;;;;;;5050847;28;20552;-82
2021/06/30 01:34:18;;;;;;;0.20;0.20;;;13.90;99.90;;;;;;5060735;28;20463;-82
2021/06/30 01:36:43;;;;;;;;;;;13.80;99.90;;;;;;5058185;28;20036;-82
2021/06/30 01:39:09;;;;;;;0.10;0.10;;;13.70;99.90;;;;;;5068879;28;20645;-82
2021/06/30 01:41:35;;;;;;;0.10;0.10;;;13.60;99.90;;;;;;5062100;28;20036;-82
2021/06/30 01:44:01;;;;;;;0.30;0.30;;;13.60;99.90;;;;;;5063696;28;20087;-82
2021/06/30 01:46:29;;;;;;;0.10;0.10;;;13.40;99.90;;;;;;5051591;28;20070;-82
2021/06/30 01:48:55;;;;;;;0.20;0.20;;;13.50;99.90;;;;;;5059973;28;20520;-82
2021/06/30 01:51:21;;;;;;;0.10;0.10;;;13.50;99.90;;;;;;5057436;28;20028;-82
2021/06/30 01:53:47;;;;;;;0.30;0.22;;;13.50;99.90;;;;;;5058680;28;20443;-82
2021/06/30 01:56:13;;;;;;;12.00;0.53;;;13.40;99.90;;;;;;5056914;28;20037;-82
2021/06/30 01:58:39;;;;;;;0.10;0.10;;;13.30;99.90;;;;;;5056622;28;20072;-82
2021/06/30 02:01:05;;;;;;;0.10;0.10;;;13.30;99.90;;;;;;5052657;28;20064;-82
2021/06/30 02:03:30;;;;;;;0.83;0.47;;;13.30;99.90;;;;;;5049989;28;20116;-82
2021/06/30 02:05:56;;;;;;;0.10;0.10;;;13.20;99.90;;;;;;5065535;28;20036;-82
2021/06/30 02:08:22;;;;;;;0.10;0.10;;;13.00;99.90;;;;;;5059940;28;20032;-82
2021/06/30 02:10:48;;;;;;;0.20;0.20;;;13.00;99.90;;;;;;5059899;28;20029;-82
2021/06/30 02:13:14;;;;;;;0.10;0.10;;;12.90;99.90;;;;;;5057181;28;20043;-82
2021/06/30 02:15:41;;;;;;;0.08;0.08;;;12.90;99.90;;;;;;5060388;28;20033;-82
2021/06/30 02:18:08;;;;;;;0.10;0.10;;;12.90;99.90;;;;;;5051350;28;20168;-82
2021/06/30 02:20:34;;;;;;;0.15;0.15;;;12.90;99.90;;;;;;5053570;28;20031;-82
2021/06/30 02:23:00;;;;;;;0.20;0.20;;;12.80;99.90;;;;;;5066448;28;20040;-83
2021/06/30 02:25:28;;;;;;;0.53;0.30;;;12.80;99.90;;;;;;5058493;28;20500;-83
2021/06/30 02:27:55;;;;;;;0.32;0.32;;;12.80;99.90;;;;;;5070954;28;20799;-83
2021/06/30 02:30:23;;;;;;;;;;;12.90;99.90;;;;;;5059451;28;20406;-83
2021/06/30 02:32:49;;;;;;;0.10;0.10;;;13.00;99.90;;;;;;5058611;28;19923;-83
2021/06/30 02:35:19;;;;;;;0.10;0.10;;;13.00;99.90;;;;;;5055965;28;20017;-83
2021/06/30 02:37:45;;;;;;;0.43;0.43;;;13.00;99.90;;;;;;5057337;28;20210;-82
2021/06/30 02:40:13;;;;;;;0.63;0.52;;;13.00;99.90;;;;;;5066638;28;20035;-83
2021/06/30 02:42:40;;;;;;;0.10;0.10;;;13.00;99.90;;;;;;5052949;28;20049;-83
2021/06/30 02:45:12;;;;;;;0.20;0.20;;;13.10;99.90;;;;;;5054167;28;20060;-83
2021/06/30 02:47:39;;;;;;;0.80;0.80;;;13.10;99.90;;;;;;5061462;28;20032;-83
2021/06/30 02:50:06;;;;;;;0.40;0.40;;;13.00;99.90;;;;;;5063302;28;20025;-83
2021/06/30 02:52:34;;;;;;;0.20;0.20;;;12.90;99.90;;;;;;5060404;28;20060;-83
2021/06/30 02:55:00;;;;;;;0.17;0.17;;;12.90;99.90;;;;;;5057541;28;20044;-83
2021/06/30 02:57:26;;;;;;;2.53;1.23;;;12.90;99.90;;;;;;5062617;28;20059;-83
2021/06/30 02:59:52;;;;;;;0.30;0.30;;;12.90;99.90;;;;;;5062273;28;20059;-83
2021/06/30 03:02:18;;;;;;;0.47;0.47;;;13.00;99.90;;;;;;5058147;28;20036;-82
2021/06/30 03:04:44;;;;;;;0.98;0.63;;;13.00;99.90;;;;;;5051855;28;20029;-83
2021/06/30 03:07:09;;;;;;;0.50;0.50;;;13.10;99.90;;;;;;5068873;28;20033;-83
2021/06/30 03:09:35;;;;;;;0.23;0.23;;;13.10;99.90;;;;;;5057106;28;20448;-83
2021/06/30 03:12:02;;;;;;;0.33;0.20;;;13.00;99.90;;;;;;5051913;28;20056;-83
2021/06/30 03:14:29;;;;;;;8.80;2.10;;;13.00;99.90;;;;;;5050043;28;20036;-83
2021/06/30 03:16:54;;;;;;;;;;;13.00;99.90;;;;;;5063727;28;20028;-83
2021/06/30 03:19:20;;;;;;;0.10;0.10;;;13.00;99.90;;;;;;5059430;28;19938;-83
2021/06/30 03:21:46;;;;;;;0.20;0.20;;;13.10;99.90;;;;;;5054521;28;20052;-83
2021/06/30 03:24:12;;;;;;;0.27;0.27;;;13.10;99.90;;;;;;5062636;28;20032;-82
2021/06/30 03:26:38;;;;;;;0.10;0.10;;;13.20;99.90;;;;;;5057310;28;20024;-82
2021/06/30 03:29:04;;;;;;;0.13;0.13;;;13.20;99.90;;;;;;5059669;28;20044;-82
2021/06/30 03:31:31;;;;;;;0.73;0.43;;;13.20;99.90;;;;;;5052232;28;20035;-82
2021/06/30 03:33:57;;;;;;;0.28;0.28;;;13.20;99.90;;;;;;5058205;28;20122;-82
2021/06/30 03:36:22;;;;;;;0.10;0.10;;;13.20;99.90;;;;;;5059946;28;20032;-81
2021/06/30 03:38:48;;;;;;;0.20;0.20;;;13.20;99.90;;;;;;5059809;28;20042;-82
2021/06/30 03:41:14;;;;;;;0.23;0.23;;;13.10;99.90;;;;;;5067512;28;20028;-82
2021/06/30 03:43:40;;;;;;;0.10;0.10;;;13.00;99.90;;;;;;5057614;28;20640;-82
2021/06/30 03:46:08;;;;;;;0.23;0.20;;;13.00;99.90;;;;;;5061145;28;20031;-82
2021/06/30 03:48:35;;;;;;;0.10;0.10;;;12.90;99.90;;;;;;5059013;28;20103;-82
2021/06/30 03:51:00;;;;;;;0.33;0.33;;;12.80;99.90;;;;;;5052347;28;20044;-82
2021/06/30 03:53:26;;;;;;;0.20;0.20;;;12.80;99.90;;;;;;5060209;28;20053;-83
2021/06/30 03:55:52;;;;;;;0.20;0.20;;;12.80;99.90;;;;;;5058390;28;20043;-83
2021/06/30 03:58:18;;;;;;;0.10;0.10;;;12.70;99.90;;;;;;5050737;28;20085;-82
2021/06/30 04:00:43;;;;;;;0.13;0.13;;;12.60;99.90;;;;;;5050660;28;21563;-82
2021/06/30 04:03:09;;;;;;;0.98;0.98;;;12.60;99.90;;;;;;5050297;28;20057;-83
2021/06/30 04:05:35;;;;;;;0.10;0.10;;;12.60;99.90;;;;;;5048008;28;20080;-83
2021/06/30 04:08:01;;;;;;;0.30;0.30;;;12.60;99.90;;;;;;5049708;28;20029;-83
2021/06/30 04:10:27;;;;;;;0.10;0.10;;;12.60;99.90;;;;;;5055592;28;20052;-83
2021/06/30 04:12:52;;;;;;;0.10;0.10;;;12.60;99.90;;;;;;5062142;28;20032;-82
2021/06/30 04:15:18;;;;;;;0.10;0.10;;;12.70;99.90;;;;;;5061781;28;20579;-83
2021/06/30 04:17:44;;;;;;;0.10;0.10;;;12.80;99.90;;;;;;5057961;28;20414;-82
2021/06/30 04:20:11;;;;;;;0.10;0.10;;;12.80;99.90;;;;;;5050640;28;20065;-83
2021/06/30 04:22:37;;;;;;;0.65;0.65;;;12.80;99.90;;;;;;5048117;28;20048;-82
2021/06/30 04:25:05;;;;;;;0.13;0.13;;;12.90;99.90;;;;;;5062726;28;20085;-82
2021/06/30 04:27:31;;;;;;;0.68;0.68;;;12.90;99.90;;;;;;5047918;28;20028;-82
2021/06/30 04:29:59;;;;;;;0.20;0.20;;;13.10;99.90;;;;;;5055341;28;20025;-83
2021/06/30 04:32:24;;;;;;;0.10;0.10;;;13.20;99.90;;;;;;5063838;28;20035;-82
2021/06/30 04:34:50;;;;;;;0.28;0.28;;;13.30;99.90;;;;;;5056365;28;20037;-83
2021/06/30 04:37:16;;;;;;;0.57;0.57;;;13.30;99.90;;;;;;5062683;28;20025;-83
2021/06/30 04:39:42;;;;;;;0.10;0.10;;;13.10;99.90;;;;;;5068332;28;20028;-83
2021/06/30 04:42:08;;;;;;;0.20;0.20;;;13.00;99.90;;;;;;5054746;28;20064;-82
2021/06/30 04:44:34;;;;;;;0.37;0.37;;;13.10;99.90;;;;;;5057193;28;20516;-83
2021/06/30 04:46:59;;;;;;;0.10;0.10;;;13.20;99.90;;;;;;5056812;28;20146;-83
2021/06/30 04:49:25;;;;;;;0.47;0.47;;;13.30;99.90;;;;;;5054985;28;20036;-83
2021/06/30 04:51:51;;;;;;;0.40;0.40;;;13.40;99.90;;;;;;5055773;28;20044;-82
2021/06/30 04:54:17;;;;;;;0.10;0.10;;;13.50;99.90;;;;;;5053900;28;20134;-83
2021/06/30 04:56:43;;;;;;;0.20;0.20;;;13.60;99.90;;;;;;5055647;28;20534;-83
2021/06/30 04:59:09;;;;;;;0.30;0.30;;;13.60;99.90;;;;;;5065771;28;20060;-83
2021/06/30 05:01:35;;;;;;;0.60;0.60;;;13.60;99.90;;;;;;5058745;28;20307;-84
2021/06/30 05:04:02;;;;;;;0.30;0.30;;;13.60;99.90;;;;;;5066675;28;20099;-83
2021/06/30 05:06:28;;;;;;;0.20;0.20;;;13.70;99.90;;;;;;5052245;28;20550;-84
2021/06/30 05:08:54;;;;;;;0.43;0.43;;;13.70;99.90;;;;;;5054715;28;20099;-84
2021/06/30 05:11:19;;;;;;;0.20;0.20;;;13.70;99.90;;;;;;5062037;28;20028;-82
2021/06/30 05:13:45;;;;;;;0.57;0.43;;;13.80;99.90;;;;;;5055429;28;20055;-84
2021/06/30 05:16:11;;;;;;;0.20;0.20;;;13.90;99.90;;;;;;5061319;28;20363;-83
2021/06/30 05:18:37;;;;;;;0.23;0.23;;;13.90;99.90;;;;;;5057707;28;20035;-83
2021/06/30 05:21:03;;;;;;;0.33;0.33;;;14.30;99.90;;;;;;5061868;28;20632;-84
2021/06/30 05:23:30;;;;;;;0.10;0.10;;;14.20;99.90;;;;;;5060173;28;20490;-83
2021/06/30 05:25:56;;;;;;;0.00;0.00;;;13.80;99.90;;;;;;5052124;28;20502;-83
2021/06/30 05:28:22;;;;;;;0.13;0.10;;;13.90;99.90;;;;;;5062949;28;20052;-83
2021/06/30 05:30:48;;;;;;;0.20;0.20;;;13.90;99.90;;;;;;5058432;28;20029;-83
2021/06/30 05:33:14;;;;;;;0.20;0.20;;;13.90;99.90;;;;;;5061413;28;20502;-83
2021/06/30 05:35:40;;;;;;;0.10;0.10;;;14.10;99.90;;;;;;5059208;28;20033;-83
2021/06/30 05:38:06;;;;;;;0.10;0.10;;;14.20;99.90;;;;;;5051692;28;20574;-82
2021/06/30 05:40:31;;;;;;;0.10;0.10;;;14.30;99.90;;;;;;5052174;28;20078;-82
2021/06/30 05:42:57;;;;;;;0.10;0.10;;;14.00;99.90;;;;;;5051544;28;20429;-82
2021/06/30 05:45:23;;;;;;;3.30;1.33;;;14.00;99.90;;;;;;5052238;28;20444;-82
2021/06/30 05:47:50;;;;;;;0.23;0.23;;;13.90;99.90;;;;;;5051380;28;20025;-82
2021/06/30 05:50:18;;;;;;;0.10;0.10;;;13.90;99.90;;;;;;5051541;28;20056;-82
2021/06/30 05:52:44;;;;;;;0.20;0.20;;;13.80;99.90;;;;;;5050561;28;20033;-82
2021/06/30 05:55:10;;;;;;;0.20;0.20;;;13.70;99.90;;;;;;5051338;28;20044;-82
2021/06/30 05:57:37;;;;;;;0.10;0.10;;;13.80;99.90;;;;;;5052153;28;20048;-82
2021/06/30 06:00:10;;;;;;;23.73;2.83;;;13.80;99.90;;;;;;5051389;28;20095;-82
2021/06/30 06:02:41;;;;;;;0.17;0.17;;;13.90;99.90;;;;;;5051554;28;20025;-82
2021/06/30 06:05:07;;;;;;;0.00;0.00;;;14.10;99.90;;;;;;5059291;28;20537;-82
2021/06/30 06:07:33;;;;;;;1.00;0.28;;;14.10;99.90;;;;;;5053084;28;20036;-82
2021/06/30 06:09:59;;;;;;;0.20;0.20;;;14.20;99.90;;;;;;5050541;28;20029;-82
2021/06/30 06:12:26;;;;;;;0.03;0.03;;;14.30;99.90;;;;;;5050183;28;20129;-82
2021/06/30 06:14:51;;;;;;;;;;;14.40;99.90;;;;;;5051980;28;20036;-82
2021/06/30 06:17:18;;;;;;;0.10;0.10;;;14.70;99.90;;;;;;5049009;28;19995;-82
2021/06/30 06:19:44;;;;;;;0.10;0.10;;;14.90;99.90;;;;;;5050287;28;20398;-82
2021/06/30 06:22:10;;;;;;;0.20;0.20;;;15.00;99.90;;;;;;5051099;28;20047;-82
2021/06/30 06:24:35;;;;;;;0.10;0.10;;;15.10;99.90;;;;;;5056277;28;20036;-82
2021/06/30 06:27:02;;;;;;;0.83;0.83;;;14.70;99.90;;;;;;5071122;28;20473;-82
2021/06/30 06:29:28;;;;;;;0.10;0.10;;;14.50;99.90;;;;;;5069468;28;20410;-82
2021/06/30 06:31:54;;;;;;;0.10;0.10;;;14.20;99.90;;;;;;5071417;28;20020;-82
2021/06/30 06:34:20;;;;;;;0.43;0.43;;;14.20;99.90;;;;;;5070816;28;20723;-82
2021/06/30 06:36:50;;;;;;;0.10;0.10;;;14.30;99.90;;;;;;5068786;28;20029;-82
2021/06/30 06:39:17;;;;;;;0.30;0.25;;;14.20;99.90;;;;;;5070459;28;20520;-82
2021/06/30 06:41:44;;;;;;;0.40;0.40;;;14.30;99.90;;;;;;5054874;28;20135;-83
2021/06/30 06:44:10;;;;;;;6.93;0.38;;;14.40;99.90;;;;;;5049338;28;20122;-83
2021/06/30 06:46:40;;;;;;;0.10;0.10;;;14.40;99.90;;;;;;5050419;28;20029;-81
2021/06/30 06:49:07;;;;;;;0.20;0.20;;;14.40;99.90;;;;;;5050653;28;20021;-82
2021/06/30 06:51:34;;;;;;;0.45;0.45;;;14.60;99.90;;;;;;5050302;28;20021;-82
2021/06/30 06:53:59;;;;;;;0.35;0.35;;;14.60;99.90;;;;;;5049262;28;20033;-82
2021/06/30 06:56:26;;;;;;;0.73;0.63;;;14.80;99.90;;;;;;5065260;28;20848;-83
2021/06/30 06:58:55;;;;;;;0.10;0.10;;;14.70;99.90;;;;;;5064032;28;20677;-82
2021/06/30 07:01:24;;;;;;;0.40;0.40;;;14.70;99.90;;;;;;5068564;28;20055;-84
2021/06/30 07:03:51;;;;;;;0.10;0.10;;;14.80;99.90;;;;;;5069081;28;20401;-84
2021/06/30 07:06:17;;;;;;;0.20;0.20;;;14.70;99.90;;;;;;5069930;28;20016;-85
2021/06/30 07:08:43;;;;;;;0.10;0.10;;;14.70;99.90;;;;;;5062940;28;20115;-84
2021/06/30 07:11:10;;;;;;;0.10;0.10;;;14.60;99.90;;;;;;5051892;28;20108;-84
2021/06/30 07:13:40;;;;;;;0.15;0.15;;;14.70;99.90;;;;;;5064340;28;20043;-84
2021/06/30 07:16:07;;;;;;;2.00;0.43;;;14.70;99.90;;;;;;5063948;28;20040;-84
2021/06/30 07:18:34;;;;;;;1.33;1.00;;;14.70;99.90;;;;;;5064027;28;20035;-84
2021/06/30 07:21:01;;;;;;;0.10;0.10;;;14.90;99.90;;;;;;5049929;28;20036;-84
2021/06/30 07:23:27;;;;;;;;;;;15.00;99.90;;;;;;5048641;28;20033;-84
2021/06/30 07:25:53;;;;;;;0.20;0.20;;;15.00;99.90;;;;;;5050036;28;19958;-84
2021/06/30 07:28:20;;;;;;;0.15;0.15;;;15.30;99.90;;;;;;5048399;28;20090;-84
2021/06/30 07:30:46;;;;;;;0.10;0.10;;;15.30;99.90;;;;;;5049905;28;20024;-84
2021/06/30 07:33:12;;;;;;;0.20;0.20;;;15.40;99.90;;;;;;5050002;28;20036;-84
2021/06/30 07:35:38;;;;;;;0.23;0.23;;;15.60;99.90;;;;;;5050007;28;20545;-84
2021/06/30 07:38:04;;;;;;;0.10;0.10;;;15.70;99.90;;;;;;5049459;28;20078;-84
2021/06/30 07:40:30;;;;;;;0.10;0.10;;;15.80;99.90;;;;;;5049983;28;20263;-84
2021/06/30 07:42:56;;;;;;;0.00;0.00;;;16.10;99.90;;;;;;5049328;28;20052;-84
2021/06/30 07:45:22;;;;;;;0.33;0.07;;;16.40;99.90;;;;;;5049852;28;20025;-84
2021/06/30 07:47:48;;;;;;;0.00;0.00;;;16.90;99.90;;;;;;5048128;28;20029;-84
2021/06/30 07:50:16;;;;;;;0.17;0.17;;;17.40;99.90;;;;;;5049746;28;20060;-84
2021/06/30 07:52:44;;;;;;;0.10;0.10;;;17.60;99.90;;;;;;5049594;28;20040;-84
2021/06/30 07:55:10;;;;;;;0.17;0.17;;;17.90;99.90;;;;;;5047972;28;20029;-84
2021/06/30 07:57:36;;;;;;;0.27;0.27;;;18.80;99.90;;;;;;5049414;28;20074;-84
2021/06/30 08:00:04;;;;;;;1.73;0.17;;;19.40;99.90;;;;;;5049313;28;20558;-84
2021/06/30 08:02:29;;;;;;;0.00;0.00;;;19.20;99.90;;;;;;5049519;28;20029;-84
2021/06/30 08:04:55;;;;;;;0.00;0.00;;;19.20;99.90;;;;;;5049195;28;20066;-83
2021/06/30 08:07:22;;;;;;;0.00;0.00;;;18.70;99.90;;;;;;5049310;28;20032;-84
2021/06/30 08:09:48;;;;;;;;;;;18.60;99.90;;;;;;5049829;28;20444;-84
2021/06/30 08:12:13;;;;;;;0.43;0.43;;;18.70;99.90;;;;;;5049116;28;19909;-84
2021/06/30 08:14:39;;;;;;;0.27;0.20;;;18.80;99.90;;;;;;5049286;28;20033;-84
2021/06/30 08:17:05;;;;;;;0.00;0.00;;;20.20;99.90;;;;;;5049172;28;20100;-84
2021/06/30 08:19:31;;;;;;;0.15;0.10;;;21.60;99.90;;;;;;5047863;28;20028;-84
2021/06/30 08:21:57;;;;;;;0.03;0.03;;;22.60;99.90;;;;;;5047390;28;20025;-84
2021/06/30 08:24:24;;;;;;;0.43;0.43;;;21.00;99.90;;;;;;5049127;28;20036;-84
2021/06/30 08:26:50;;;;;;;0.10;0.10;;;20.40;99.90;;;;;;5048992;28;20029;-84
2021/06/30 08:29:19;;;;;;;0.00;0.00;;;19.80;99.90;;;;;;5048818;28;20100;-84
2021/06/30 08:31:45;;;;;;;0.22;0.10;;;19.70;99.90;;;;;;5049155;28;20025;-84
2021/06/30 08:34:11;;;;;;;0.07;0.03;;;19.70;99.90;;;;;;5048583;28;20033;-84
2021/06/30 08:36:37;;;;;;;0.00;0.00;;;20.00;99.90;;;;;;5048878;28;20025;-84
2021/06/30 08:39:05;;;;;;;0.65;0.43;;;20.00;99.90;;;;;;5048618;28;20033;-84
2021/06/30 08:41:31;;;;;;;0.20;0.20;;;19.80;99.90;;;;;;5048459;28;20053;-84
2021/06/30 08:43:57;;;;;;;0.20;0.20;;;19.40;99.90;;;;;;5049039;28;20430;-84
2021/06/30 08:46:23;;;;;;;0.10;0.10;;;19.20;99.90;;;;;;5048660;28;20094;-84
2021/06/30 08:48:54;;;;;;;0.00;0.00;;;19.40;99.90;;;;;;5048527;28;20087;-84
2021/06/30 08:51:27;;;;;;;0.00;0.00;;;19.90;99.90;;;;;;5048646;28;20671;-84
2021/06/30 08:53:55;;;;;;;0.13;0.13;;;20.20;99.90;;;;;;5048893;28;20021;-84
2021/06/30 08:56:30;;;;;;;0.28;0.28;;;20.60;99.90;;;;;;5048565;28;20501;-84
2021/06/30 08:58:58;;;;;;;0.00;0.00;;;21.20;99.90;;;;;;5047045;28;20049;-84
2021/06/30 09:01:25;;;;;;;0.00;0.00;;;21.20;99.90;;;;;;5048257;28;20104;-84
2021/06/30 09:03:54;;;;;;;0.20;0.20;;;24.20;99.90;;;;;;5047164;28;20433;-85
2021/06/30 09:06:24;;;;;;;0.00;0.00;;;24.50;99.90;;;;;;5046939;28;20032;-84
2021/06/30 09:08:55;;;;;;;0.00;0.00;;;23.90;99.90;;;;;;5046973;28;20021;-84
2021/06/30 09:11:24;;;;;;;0.00;0.00;;;23.10;99.90;;;;;;5048276;28;20021;-84
2021/06/30 09:14:12;;;;;;;0.10;0.10;;;21.70;99.90;;;;;;5048475;28;20079;-84
2021/06/30 09:17:04;;;;;;;0.08;0.08;;;20.90;99.90;;;;;;5048404;28;20029;-84
2021/06/30 09:20:06;;;;;;;0.10;0.10;;;21.10;99.90;;;;;;5047937;28;20033;-84
2021/06/30 09:22:54;;;;;;;0.17;0.17;;;20.30;99.90;;;;;;5046546;28;20457;-84
2021/06/30 09:25:35;;;;;;;0.10;0.10;;;19.30;99.90;;;;;;5047801;28;20025;-84
2021/06/30 09:28:12;;;;;;;0.28;0.28;;;18.70;99.90;;;;;;5048085;28;20029;-84
2021/06/30 09:30:56;;;;;;;0.20;0.20;;;18.90;99.90;;;;;;5046472;28;20036;-84
2021/06/30 09:33:22;;;;;;;0.00;0.00;;;19.10;99.90;;;;;;5047419;28;20037;-84
2021/06/30 09:35:48;;;;;;;0.20;0.20;;;19.10;99.90;;;;;;5062517;28;20401;-84
2021/06/30 09:38:27;;;;;;;0.00;0.00;;;19.10;99.90;;;;;;5066073;28;20131;-84
2021/06/30 09:40:53;;;;;;;0.10;0.10;;;18.60;99.90;;;;;;5067816;28;20768;-84
2021/06/30 09:43:32;;;;;;;0.20;0.20;;;19.40;99.90;;;;;;5067555;28;20123;-84
2021/06/30 09:46:15;;;;;;;0.20;0.20;;;19.40;99.90;;;;;;5067802;28;20131;-84
2021/06/30 09:48:41;;;;;;;0.13;0.13;;;19.40;99.90;;;;;;5067827;28;20023;-84
2021/06/30 09:51:17;;;;;;;0.97;0.20;;;19.40;99.90;;;;;;5068066;28;20024;-84
2021/06/30 09:53:43;;;;;;;0.15;0.15;;;19.90;99.90;;;;;;5070340;28;20077;-84
2021/06/30 09:56:15;;;;;;;;;;;19.90;99.90;;;;;;5072085;28;20517;-84
2021/06/30 09:58:41;;;;;;;5.32;0.73;;;19.40;99.90;;;;;;5071543;28;19908;-84
2021/06/30 10:01:18;;;;;;;0.10;0.10;;;19.00;99.90;;;;;;5071560;28;20154;-84
2021/06/30 10:03:44;;;;;;;0.10;0.10;;;18.90;99.90;;;;;;5071325;28;20033;-84
2021/06/30 10:06:28;;;;;;;0.30;0.30;;;19.60;99.90;;;;;;5071202;28;20055;-84
2021/06/30 10:08:55;;;;;;;0.00;0.00;;;20.10;99.90;;;;;;5071049;28;20028;-84
2021/06/30 10:11:21;;;;;;;0.00;0.00;;;20.00;99.90;;;;;;5070621;28;20048;-84
2021/06/30 10:13:48;;;;;;;0.00;0.00;;;20.40;99.90;;;;;;5069730;28;20486;-84
2021/06/30 10:16:19;;;;;;;0.00;0.00;;;20.80;99.90;;;;;;5069567;28;20764;-84
2021/06/30 10:18:45;;;;;;;0.00;0.00;;;21.40;99.90;;;;;;5059018;28;20486;-84
2021/06/30 10:21:11;;;;;;;0.40;0.40;;;21.50;99.90;;;;;;5057799;28;20043;-84
2021/06/30 10:23:38;;;;;;;;;;;21.50;99.90;;;;;;5070431;28;20486;-84
2021/06/30 10:26:04;;;;;;;0.00;0.00;;;21.60;99.90;;;;;;5070660;28;19908;-84
2021/06/30 10:28:31;;;;;;;5.07;0.40;;;20.90;99.90;;;;;;5070098;28;20035;-84
2021/06/30 10:30:57;;;;;;;0.47;0.40;;;20.70;99.90;;;;;;5068768;28;20025;-85
2021/06/30 10:33:33;;;;;;;0.98;0.65;;;22.50;99.90;;;;;;5056149;28;20036;-85
2021/06/30 10:36:01;;;;;;;0.20;0.03;;;23.10;99.90;;;;;;5062302;28;20041;-85
2021/06/30 10:38:51;;;;;;;0.20;0.20;;;23.80;99.90;;;;;;5050263;28;20043;-85
2021/06/30 10:41:54;;;;;;;0.00;0.00;;;25.60;99.90;;;;;;5050347;28;20036;-86
2021/06/30 10:44:25;;;;;;;0.28;0.28;;;26.80;99.90;;;;;;5058016;28;20025;-86
2021/06/30 10:46:53;;;;;;;0.20;0.20;;;24.30;99.90;;;;;;5069050;28;20035;-85
2021/06/30 10:49:19;;;;;;;0.00;0.00;;;23.00;99.90;;;;;;5062544;28;20013;-85
2021/06/30 10:52:06;;;;;;;0.00;0.00;;;22.80;99.90;;;;;;5057458;28;20029;-85
2021/06/30 10:54:32;;;;;;;0.00;0.00;;;22.30;99.90;;;;;;5055900;28;20268;-85
2021/06/30 10:57:24;;;;;;;0.43;0.22;;;21.90;99.90;;;;;;5058452;28;20098;-84
2021/06/30 11:00:14;;;;;;;0.00;0.00;;;22.00;99.90;;;;;;5050996;28;20032;-85
2021/06/30 11:02:40;;;;;;;0.00;0.00;;;21.30;99.90;;;;;;5054518;28;20037;-84
2021/06/30 11:05:14;;;;;;;0.17;0.15;;;22.10;99.90;;;;;;5053310;28;20059;-84
2021/06/30 11:07:45;;;;;;;0.40;0.17;;;21.30;99.90;;;;;;5053562;28;20021;-84
2021/06/30 11:10:23;;;;;;;0.10;0.10;;;21.00;99.90;;;;;;5053873;28;20021;-84
2021/06/30 11:13:02;;;;;;;0.10;0.10;;;20.70;99.90;;;;;;5056124;28;20032;-84
2021/06/30 11:15:38;;;;;;;0.15;0.15;;;20.50;99.90;;;;;;5056225;28;20020;-84
2021/06/30 11:18:13;;;;;;;0.00;0.00;;;20.40;99.90;;;;;;5052079;28;20028;-84
2021/06/30 11:20:52;;;;;;;0.22;0.00;;;20.00;99.90;;;;;;5055599;28;20691;-84
2021/06/30 11:23:23;;;;;;;1.23;0.32;;;19.60;99.90;;;;;;5072643;28;20017;-84
2021/06/30 11:25:51;;;;;;;0.00;0.00;;;19.10;99.90;;;;;;5051374;28;20457;-83
2021/06/30 11:28:38;;;;;;;0.00;0.00;;;19.20;99.90;;;;;;5056620;28;20040;-83
2021/06/30 11:31:26;;;;;;;0.10;0.10;;;19.20;99.90;;;;;;5052911;28;20029;-84
2021/06/30 11:34:17;;;;;;;1.85;0.80;;;19.50;99.90;;;;;;5056221;28;20049;-83
2021/06/30 11:36:43;;;;;;;0.00;0.00;;;20.40;99.90;;;;;;5057429;28;20064;-83
2021/06/30 11:39:11;;;;;;;0.00;0.00;;;20.90;99.90;;;;;;5065772;28;20055;-83
2021/06/30 11:41:49;;;;;;;0.10;0.10;;;21.40;99.90;;;;;;5061886;28;20661;-84
2021/06/30 11:44:18;;;;;;;0.03;0.03;;;22.30;99.90;;;;;;5048516;28;20040;-84
2021/06/30 11:46:47;;;;;;;0.00;0.00;;;22.80;99.90;;;;;;5047542;28;20068;-84
2021/06/30 11:49:18;;;;;;;0.00;0.00;;;22.20;99.90;;;;;;5048272;28;20027;-84
2021/06/30 11:51:44;;;;;;;0.05;0.05;;;22.50;99.90;;;;;;5047959;28;20028;-84
2021/06/30 11:54:14;;;;;;;0.30;0.00;;;22.00;99.90;;;;;;5049044;28;20033;-83
2021/06/30 11:56:41;;;;;;;2.53;0.30;;;21.80;99.90;;;;;;5055393;28;20276;-83
2021/06/30 11:59:22;;;;;;;0.17;0.17;;;21.30;99.90;;;;;;5050213;28;20025;-83
2021/06/30 12:01:49;;;;;;;0.17;0.17;;;21.00;99.90;;;;;;5068710;28;20028;-83
2021/06/30 12:04:25;;;;;;;0.00;0.00;;;21.00;99.90;;;;;;5060179;28;20036;-83
2021/06/30 12:07:01;;;;;;;0.00;0.00;;;21.30;99.90;;;;;;5069441;28;20024;-83
2021/06/30 12:09:30;;;;;;;0.05;0.05;;;20.90;99.90;;;;;;5064427;28;20447;-83
2021/06/30 12:12:02;;;;;;;0.05;0.05;;;20.60;99.90;;;;;;5068731;28;20699;-83
2021/06/30 12:14:30;;;;;;;0.03;0.03;;;20.90;99.90;;;;;;5063180;28;20024;-83
2021/06/30 12:17:00;;;;;;;0.05;0.05;;;21.90;99.90;;;;;;5050748;28;20510;-83
2021/06/30 12:19:32;;;;;;;0.30;0.10;;;22.00;99.90;;;;;;5058142;28;20035;-83
2021/06/30 12:21:58;;;;;;;0.00;0.00;;;23.10;99.90;;;;;;5045326;28;20437;-83
2021/06/30 12:24:24;;;;;;;0.08;0.08;;;23.60;99.90;;;;;;5053493;28;20029;-83
2021/06/30 12:27:05;;;;;;;4.10;0.60;;;24.10;99.90;;;;;;5045799;28;20065;-83
2021/06/30 12:29:33;;;;;;;0.10;0.10;;;24.40;99.90;;;;;;5049163;28;20021;-83
2021/06/30 12:32:01;;;;;;;0.10;0.10;;;24.70;99.90;;;;;;5049126;28;20100;-84
2021/06/30 12:34:27;;;;;;;0.00;0.00;;;24.40;99.90;;;;;;5062523;28;20403;-84
2021/06/30 12:36:53;;;;;;;0.00;0.00;;;24.10;99.90;;;;;;5048970;28;20037;-84
2021/06/30 12:39:28;;;;;;;0.00;0.00;;;23.50;99.90;;;;;;5059403;28;20028;-85
2021/06/30 12:42:02;;;;;;;0.00;0.00;;;23.70;99.90;;;;;;5064395;28;20066;-84
2021/06/30 12:44:50;;;;;;;0.00;0.00;;;23.80;99.90;;;;;;5047825;28;20580;-85
2021/06/30 12:47:16;;;;;;;0.00;0.00;;;23.70;99.90;;;;;;5047939;28;20013;-84
2021/06/30 12:49:54;;;;;;;0.20;0.20;;;23.10;99.90;;;;;;5048249;28;20025;-84
2021/06/30 12:52:22;;;;;;;0.20;0.00;;;23.20;99.90;;;;;;5047772;28;20267;-84
2021/06/30 12:55:10;;;;;;;0.20;0.00;;;23.20;99.90;;;;;;5046667;28;20025;-84